createdAt,value
2018-01-03T00:01:02.584Z,4.63
2018-01-03T00:03:31.578Z,5.37
2018-01-03T00:06:01.569Z,4.77
2018-01-03T00:08:30.420Z,4.57
2018-01-03T00:10:59.305Z,4.80
2018-01-03T00:13:28.250Z,4.07
2018-01-03T00:15:57.075Z,5.00
2018-01-03T00:18:25.948Z,4.07
2018-01-03T00:20:54.958Z,4.47
2018-01-03T00:23:23.759Z,4.67
2018-01-03T00:25:52.611Z,4.57
2018-01-03T00:28:21.418Z,4.97
2018-01-03T00:31:04.942Z,4.63
2018-01-03T00:33:33.798Z,4.73
2018-01-03T00:36:02.628Z,3.63
2018-01-03T00:38:34.867Z,4.10
2018-01-03T00:41:03.708Z,3.70
2018-01-03T00:43:32.505Z,4.13
2018-01-03T00:46:01.436Z,3.83
2018-01-03T00:48:30.247Z,3.97
2018-01-03T00:50:59.124Z,3.97
2018-01-03T00:53:28.760Z,4.47
2018-01-03T00:55:58.604Z,6.30
2018-01-03T00:58:27.396Z,6.37
2018-01-03T01:00:57.134Z,6.40
2018-01-03T01:03:25.973Z,5.43
2018-01-03T01:06:07.805Z,4.90
2018-01-03T01:08:36.631Z,5.50
2018-01-03T01:11:05.442Z,5.23
2018-01-03T01:13:36.025Z,4.90
2018-01-03T01:16:04.999Z,4.63
2018-01-03T01:18:33.843Z,4.20
2018-01-03T01:21:03.657Z,5.70
2018-01-03T01:23:34.592Z,6.17
2018-01-03T01:26:03.447Z,5.30
2018-01-03T01:28:34.082Z,5.67
2018-01-03T01:31:02.956Z,6.10
2018-01-03T01:33:31.782Z,6.03
2018-01-03T01:38:34.576Z,5.77
2018-01-03T01:41:03.445Z,6.93
2018-01-03T01:43:32.406Z,6.30
2018-01-03T01:46:01.366Z,5.53
2018-01-03T01:48:30.211Z,5.83
2018-01-03T01:50:59.100Z,6.70
2018-01-03T01:53:27.996Z,7.33
2018-01-03T01:55:56.785Z,6.90
2018-01-03T01:58:26.525Z,7.20
2018-01-03T02:00:55.394Z,7.73
2018-01-03T02:03:24.274Z,8.30
2018-01-03T02:05:54.020Z,8.00
2018-01-03T02:08:22.889Z,7.30
2018-01-03T02:10:51.735Z,7.77
2018-01-03T02:13:20.598Z,8.17
2018-01-03T02:15:51.499Z,8.60
2018-01-03T02:18:20.339Z,8.37
2018-01-03T02:20:51.714Z,8.20
2018-01-03T02:23:20.543Z,9.57
2018-01-03T02:25:49.531Z,8.23
2018-01-03T02:28:18.382Z,8.50
2018-01-03T02:30:47.187Z,8.90
2018-01-03T02:33:15.999Z,8.50
2018-01-03T02:35:45.031Z,7.97
2018-01-03T02:38:25.530Z,7.43
2018-01-03T02:43:28.326Z,8.20
2018-01-03T02:46:16.638Z,8.20
2018-01-03T02:48:45.457Z,7.90
2018-01-03T02:51:14.281Z,7.20
2018-01-03T02:53:45.180Z,7.87
2018-01-03T02:56:14.099Z,7.23
2018-01-03T02:58:42.955Z,8.03
2018-01-03T03:01:11.800Z,7.23
2018-01-03T03:03:44.046Z,11.07
2018-01-03T03:06:13.121Z,10.20
2018-01-03T03:08:42.040Z,10.07
2018-01-03T03:11:10.924Z,9.63
2018-01-03T03:13:39.845Z,9.93
2018-01-03T03:16:08.625Z,11.53
2018-01-03T03:18:37.485Z,11.03
2018-01-03T03:21:16.044Z,11.60
2018-01-03T03:23:44.909Z,12.10
2018-01-03T03:26:13.757Z,13.13
2018-01-03T03:28:43.467Z,12.73
2018-01-03T03:31:29.088Z,11.80
2018-01-03T03:33:57.912Z,13.23
2018-01-03T03:36:26.706Z,9.30
2018-01-03T03:38:55.536Z,10.67
2018-01-03T03:41:33.846Z,11.13
2018-01-03T03:44:02.695Z,12.53
2018-01-03T03:46:31.482Z,13.07
2018-01-03T03:49:03.136Z,11.47
2018-01-03T03:51:32.076Z,11.60
2018-01-03T03:54:00.916Z,11.90
2018-01-03T03:56:29.719Z,12.37
2018-01-03T03:58:58.704Z,12.83
2018-01-03T04:01:27.607Z,12.10
2018-01-03T04:03:58.160Z,12.60
2018-01-03T04:06:26.968Z,13.77
2018-01-03T04:08:55.857Z,13.80
2018-01-03T04:11:31.188Z,13.63
2018-01-03T04:13:59.982Z,14.73
2018-01-03T04:16:28.790Z,15.13
2018-01-03T04:18:58.473Z,15.70
2018-01-03T04:21:28.307Z,14.60
2018-01-03T04:23:57.138Z,15.23
2018-01-03T04:26:27.703Z,15.87
2018-01-03T04:28:56.568Z,16.70
2018-01-03T04:31:25.496Z,16.50
2018-01-03T04:33:55.200Z,15.73
2018-01-03T04:36:24.116Z,13.70
2018-01-03T04:38:52.931Z,14.37
2018-01-03T04:41:23.845Z,15.90
2018-01-03T04:43:52.685Z,15.47
2018-01-03T04:46:21.516Z,14.67
2018-01-03T04:48:56.336Z,16.80
2018-01-03T04:51:25.250Z,16.40
2018-01-03T04:53:54.087Z,16.03
2018-01-03T04:56:22.996Z,17.77
2018-01-03T04:58:57.604Z,21.07
2018-01-03T05:01:28.245Z,19.67
2018-01-03T05:03:57.094Z,17.97
2018-01-03T05:06:26.015Z,18.00
2018-01-03T05:08:59.427Z,18.40
2018-01-03T05:11:28.242Z,18.87
2018-01-03T05:14:02.377Z,18.23
2018-01-03T05:16:31.170Z,17.80
2018-01-03T05:19:00.057Z,18.70
2018-01-03T05:21:28.982Z,17.57
2018-01-03T05:23:57.841Z,18.77
2018-01-03T05:26:26.752Z,19.50
2018-01-03T05:28:55.687Z,19.43
2018-01-03T05:31:24.677Z,19.70
2018-01-03T05:33:53.527Z,23.00
2018-01-03T05:36:22.557Z,21.20
2018-01-03T05:38:51.465Z,22.80
2018-01-03T05:41:20.301Z,22.73
2018-01-03T05:43:51.191Z,23.80
2018-01-03T05:46:20.105Z,19.60
2018-01-03T05:48:48.962Z,30.30
2018-01-03T05:51:20.623Z,22.87
2018-01-03T05:53:49.454Z,22.93
2018-01-03T05:56:18.489Z,22.37
2018-01-03T06:01:21.637Z,17.70
2018-01-03T06:03:50.496Z,16.73
2018-01-03T06:06:20.958Z,18.50
2018-01-03T06:08:49.763Z,18.37
2018-01-03T06:11:22.443Z,17.80
2018-01-03T06:13:51.281Z,16.40
2018-01-03T06:16:20.076Z,15.33
2018-01-03T06:18:50.620Z,16.20
2018-01-03T06:21:19.451Z,14.50
2018-01-03T06:23:48.276Z,17.10
2018-01-03T06:28:53.572Z,19.73
2018-01-03T06:31:22.360Z,19.57
2018-01-03T06:33:51.266Z,20.07
2018-01-03T06:36:20.115Z,21.53
2018-01-03T06:38:48.946Z,21.67
2018-01-03T06:41:17.775Z,18.40
2018-01-03T06:43:47.504Z,18.10
2018-01-03T06:46:16.329Z,16.60
2018-01-03T06:48:45.186Z,11.73
2018-01-03T06:51:14.869Z,10.80
2018-01-03T06:53:43.678Z,8.53
2018-01-03T06:56:12.499Z,6.40
2018-01-03T06:58:43.133Z,6.50
2018-01-03T07:01:11.974Z,7.90
2018-01-03T07:03:40.832Z,7.00
2018-01-03T07:06:11.574Z,6.23
2018-01-03T07:08:40.408Z,6.63
2018-01-03T07:11:18.549Z,6.77
2018-01-03T07:13:53.257Z,6.10
2018-01-03T07:16:22.346Z,4.67
2018-01-03T07:18:51.407Z,5.63
2018-01-03T07:21:20.517Z,4.77
2018-01-03T07:23:49.525Z,4.27
2018-01-03T07:26:18.572Z,4.17
2018-01-03T07:28:47.635Z,4.10
2018-01-03T07:31:22.694Z,3.17
2018-01-03T07:33:52.426Z,3.20
2018-01-03T07:36:21.820Z,2.73
2018-01-03T07:38:50.892Z,2.63
2018-01-03T07:41:19.810Z,2.47
2018-01-03T07:43:48.791Z,2.93
2018-01-03T07:46:19.411Z,3.10
2018-01-03T07:48:49.156Z,3.07
2018-01-03T07:51:19.250Z,2.70
2018-01-03T07:53:48.608Z,2.57
2018-01-03T07:56:21.586Z,3.10
2018-01-03T07:58:50.528Z,3.03
2018-01-03T08:01:19.662Z,2.90
2018-01-03T08:03:48.603Z,3.20
2018-01-03T08:06:17.472Z,2.60
2018-01-03T08:08:46.272Z,2.40
2018-01-03T08:11:15.042Z,2.60
2018-01-03T08:13:44.042Z,3.50
2018-01-03T08:16:12.877Z,2.43
2018-01-03T08:18:41.768Z,2.20
2018-01-03T08:21:12.293Z,2.63
2018-01-03T08:23:41.231Z,1.93
2018-01-03T08:26:10.022Z,2.63
2018-01-03T08:28:39.649Z,1.97
2018-01-03T08:31:08.496Z,1.80
2018-01-03T08:33:37.389Z,1.77
2018-01-03T08:36:08.072Z,2.70
2018-01-03T08:38:36.938Z,1.60
2018-01-03T08:41:05.714Z,5.77
2018-01-03T08:43:34.583Z,4.37
2018-01-03T08:46:03.368Z,2.93
2018-01-03T08:48:32.154Z,2.67
2018-01-03T08:51:01.840Z,5.40
2018-01-03T08:53:30.618Z,4.77
2018-01-03T08:55:59.429Z,2.90
2018-01-03T08:58:28.259Z,3.97
2018-01-03T09:00:57.032Z,2.30
2018-01-03T09:03:30.047Z,2.53
2018-01-03T09:05:59.964Z,2.10
2018-01-03T09:08:28.791Z,2.47
2018-01-03T09:10:59.492Z,2.73
2018-01-03T09:13:28.280Z,3.00
2018-01-03T09:15:57.081Z,2.20
2018-01-03T09:18:29.957Z,2.43
2018-01-03T09:20:58.761Z,2.63
2018-01-03T09:23:27.560Z,3.17
2018-01-03T09:25:58.031Z,2.50
2018-01-03T09:28:26.836Z,2.93
2018-01-03T09:30:55.630Z,3.33
2018-01-03T09:33:24.615Z,2.70
2018-01-03T09:35:53.447Z,3.17
2018-01-03T09:38:22.215Z,5.73
2018-01-03T09:40:52.666Z,6.43
2018-01-03T09:43:21.549Z,3.50
2018-01-03T09:45:50.354Z,4.53
2018-01-03T09:48:20.976Z,4.33
2018-01-03T09:50:49.803Z,3.10
2018-01-03T09:53:18.675Z,4.13
2018-01-03T09:55:47.498Z,4.17
2018-01-03T09:58:16.294Z,4.80
2018-01-03T10:00:45.095Z,5.20
2018-01-03T10:03:15.167Z,5.27
2018-01-03T10:05:43.999Z,3.67
2018-01-03T10:08:12.939Z,4.13
2018-01-03T10:10:42.738Z,3.23
2018-01-03T10:13:11.502Z,4.70
2018-01-03T10:15:40.286Z,4.93
2018-01-03T10:18:09.137Z,4.40
2018-01-03T10:20:37.903Z,4.23
2018-01-03T10:23:06.717Z,4.87
2018-01-03T10:25:35.642Z,4.63
2018-01-03T10:28:04.426Z,3.10
2018-01-03T10:30:33.281Z,4.23
2018-01-03T10:33:03.070Z,3.03
2018-01-03T10:35:31.851Z,3.30
2018-01-03T10:38:00.637Z,4.47
2018-01-03T10:40:30.294Z,3.27
2018-01-03T10:42:59.077Z,3.73
2018-01-03T10:45:27.895Z,3.67
2018-01-03T10:47:57.546Z,4.17
2018-01-03T10:50:26.342Z,4.40
2018-01-03T10:52:55.129Z,7.17
2018-01-03T10:55:23.950Z,5.60
2018-01-03T10:57:52.818Z,6.40
2018-01-03T11:00:21.627Z,5.43
2018-01-03T11:02:50.635Z,3.50
2018-01-03T11:05:19.438Z,5.77
2018-01-03T11:07:48.243Z,5.40
2018-01-03T11:10:19.506Z,5.67
2018-01-03T11:12:48.342Z,6.60
2018-01-03T11:15:17.158Z,5.77
2018-01-03T11:17:46.029Z,5.47
2018-01-03T11:20:14.848Z,4.40
2018-01-03T11:22:43.681Z,4.60
2018-01-03T11:25:12.517Z,4.00
2018-01-03T11:27:41.296Z,4.87
2018-01-03T11:30:10.104Z,13.60
2018-01-03T11:32:39.067Z,25.07
2018-01-03T11:35:07.865Z,5.40
2018-01-03T11:37:36.781Z,4.10
2018-01-03T11:40:05.607Z,4.07
2018-01-03T11:42:34.360Z,3.70
2018-01-03T11:45:03.195Z,4.17
2018-01-03T11:47:32.023Z,4.00
2018-01-03T11:50:00.815Z,3.70
2018-01-03T11:52:29.611Z,4.00
2018-01-03T11:54:59.239Z,4.43
2018-01-03T11:57:28.090Z,4.10
2018-01-03T11:59:56.908Z,4.17
2018-01-03T12:02:25.769Z,4.43
2018-01-03T12:04:54.562Z,4.73
2018-01-03T12:07:23.413Z,4.40
2018-01-03T12:09:52.258Z,3.97
2018-01-03T12:12:21.039Z,4.80
2018-01-03T12:14:49.903Z,4.50
2018-01-03T12:17:19.604Z,4.50
2018-01-03T12:19:48.443Z,4.83
2018-01-03T12:22:17.297Z,4.70
2018-01-03T12:24:46.201Z,4.50
2018-01-03T12:27:15.066Z,4.50
2018-01-03T12:29:43.886Z,5.40
2018-01-03T12:32:12.796Z,5.10
2018-01-03T12:34:41.562Z,5.30
2018-01-03T12:37:10.388Z,5.70
2018-01-03T12:39:41.890Z,5.17
2018-01-03T12:42:10.675Z,4.93
2018-01-03T12:44:39.505Z,6.00
2018-01-03T12:47:08.445Z,4.60
2018-01-03T12:49:37.292Z,4.93
2018-01-03T12:52:06.129Z,5.93
2018-01-03T12:54:36.990Z,7.13
2018-01-03T12:57:05.820Z,7.53
2018-01-03T12:59:34.615Z,5.90
2018-01-03T13:02:04.378Z,5.73
2018-01-03T13:04:33.295Z,5.73
2018-01-03T13:07:02.115Z,5.40
2018-01-03T13:09:30.984Z,5.97
2018-01-03T13:11:59.802Z,7.23
2018-01-03T13:14:28.649Z,6.97
2018-01-03T13:16:57.511Z,6.43
2018-01-03T13:19:26.313Z,5.53
2018-01-03T13:21:55.126Z,5.40
2018-01-03T13:24:25.693Z,5.80
2018-01-03T13:26:54.503Z,6.37
2018-01-03T13:29:23.286Z,8.07
2018-01-03T13:31:53.131Z,6.50
2018-01-03T13:34:21.928Z,5.27
2018-01-03T13:36:50.777Z,5.60
2018-01-03T13:39:20.410Z,5.87
2018-01-03T13:41:49.217Z,6.70
2018-01-03T13:44:18.034Z,6.67
2018-01-03T13:46:46.973Z,6.83
2018-01-03T13:49:15.804Z,6.40
2018-01-03T13:51:44.639Z,6.20
2018-01-03T13:54:13.482Z,6.80
2018-01-03T13:56:42.296Z,10.30
2018-01-03T13:59:11.125Z,7.20
2018-01-03T14:01:40.799Z,10.00
2018-01-03T14:04:09.680Z,8.90
2018-01-03T14:06:38.500Z,9.70
2018-01-03T14:09:09.015Z,9.80
2018-01-03T14:11:37.854Z,9.13
2018-01-03T14:14:07.713Z,8.47
2018-01-03T14:16:36.583Z,7.40
2018-01-03T14:19:05.404Z,9.30
2018-01-03T14:21:34.283Z,9.90
2018-01-03T14:24:03.437Z,9.90
2018-01-03T14:26:32.256Z,6.73
2018-01-03T14:29:01.087Z,5.10
2018-01-03T14:31:30.771Z,6.17
2018-01-03T14:33:59.591Z,22.03
2018-01-03T14:36:28.421Z,11.60
2018-01-03T14:38:57.259Z,6.57
2018-01-03T14:41:26.096Z,9.03
2018-01-03T14:43:54.890Z,8.73
2018-01-03T14:46:23.745Z,7.60
2018-01-03T14:48:52.579Z,8.30
2018-01-03T14:51:22.391Z,7.47
2018-01-03T14:53:51.269Z,7.50
2018-01-03T14:56:20.086Z,8.23
2018-01-03T14:58:48.909Z,6.63
2018-01-03T15:01:18.593Z,6.13
2018-01-03T15:03:47.365Z,7.30
2018-01-03T15:06:16.209Z,9.40
2018-01-03T15:08:46.199Z,11.53
2018-01-03T15:11:15.029Z,12.13
2018-01-03T15:13:43.853Z,13.00
2018-01-03T15:18:46.718Z,14.40
2018-01-03T15:21:15.542Z,13.37
2018-01-03T15:23:44.498Z,13.17
2018-01-03T15:26:13.306Z,11.43
2018-01-03T15:28:42.112Z,16.30
2018-01-03T15:31:11.921Z,16.87
2018-01-03T15:33:40.742Z,24.60
2018-01-03T15:36:09.600Z,28.27
2018-01-03T15:38:42.740Z,34.37
2018-01-03T15:41:11.544Z,28.23
2018-01-03T15:43:40.454Z,19.63
2018-01-03T15:46:09.421Z,17.70
2018-01-03T15:48:38.264Z,24.87
2018-01-03T15:51:07.099Z,21.40
2018-01-03T15:53:36.814Z,19.00
2018-01-03T15:56:05.642Z,18.90
2018-01-03T15:58:34.510Z,16.47
2018-01-03T16:01:03.414Z,15.10
2018-01-03T16:03:32.232Z,15.10
2018-01-03T16:06:01.080Z,18.80
2018-01-03T16:08:30.074Z,22.70
2018-01-03T16:10:58.890Z,29.77
2018-01-03T16:13:27.753Z,27.97
2018-01-03T16:15:58.812Z,26.03
2018-01-03T16:18:27.634Z,24.00
2018-01-03T16:20:56.577Z,20.80
2018-01-03T16:23:26.256Z,21.60
2018-01-03T16:25:55.408Z,19.57
2018-01-03T16:28:24.275Z,24.07
2018-01-03T16:30:53.117Z,20.67
2018-01-03T16:33:21.985Z,16.80
2018-01-03T16:35:50.837Z,11.60
2018-01-03T16:38:19.729Z,12.60
2018-01-03T16:40:48.552Z,11.77
2018-01-03T16:43:17.524Z,12.83
2018-01-03T16:45:47.335Z,13.60
2018-01-03T16:48:16.203Z,12.20
2018-01-03T16:50:44.998Z,11.30
2018-01-03T16:53:13.869Z,11.60
2018-01-03T16:55:42.833Z,9.60
2018-01-03T16:58:11.669Z,8.63
2018-01-03T17:00:40.545Z,8.37
2018-01-03T17:03:09.414Z,9.23
2018-01-03T17:05:38.374Z,9.63
2018-01-03T17:08:09.818Z,9.70
2018-01-03T17:10:38.715Z,13.83
2018-01-03T17:13:07.548Z,13.07
2018-01-03T17:15:37.258Z,14.70
2018-01-03T17:18:06.062Z,10.13
2018-01-03T17:20:34.968Z,13.70
2018-01-03T17:23:03.856Z,12.70
2018-01-03T17:25:32.672Z,9.23
2018-01-03T17:28:01.504Z,11.30
2018-01-03T17:30:31.341Z,16.20
2018-01-03T17:33:00.211Z,13.20
2018-01-03T17:35:29.065Z,11.83
2018-01-03T17:37:58.971Z,11.57
2018-01-03T17:40:31.436Z,12.03
2018-01-03T17:43:00.306Z,12.03
2018-01-03T17:45:29.133Z,13.53
2018-01-03T17:47:58.006Z,14.67
2018-01-03T17:50:32.950Z,17.27
2018-01-03T17:53:01.781Z,22.33
2018-01-03T17:55:30.633Z,22.90
2018-01-03T17:57:59.500Z,20.07
2018-01-03T18:00:28.428Z,21.70
2018-01-03T18:02:57.294Z,22.50
2018-01-03T18:05:27.805Z,27.33
2018-01-03T18:07:56.677Z,21.90
2018-01-03T18:10:25.569Z,23.23
2018-01-03T18:12:54.452Z,26.27
2018-01-03T18:15:23.333Z,24.57
2018-01-03T18:17:52.192Z,25.03
2018-01-03T18:20:21.062Z,24.20
2018-01-03T18:22:49.986Z,25.87
2018-01-03T18:25:18.814Z,25.30
2018-01-03T18:27:48.135Z,23.97
2018-01-03T18:30:16.966Z,28.23
2018-01-03T18:32:45.904Z,27.63
2018-01-03T18:35:16.585Z,34.30
2018-01-03T18:37:45.484Z,34.23
2018-01-03T18:40:14.355Z,30.97
2018-01-03T18:42:43.455Z,33.07
2018-01-03T18:45:12.331Z,31.07
2018-01-03T18:47:41.237Z,30.70
2018-01-03T18:50:10.282Z,26.30
2018-01-03T18:52:39.128Z,26.87
2018-01-03T18:55:07.993Z,41.23
2018-01-03T18:57:37.841Z,38.93
2018-01-03T19:00:06.846Z,34.40
2018-01-03T19:02:35.860Z,34.77
2018-01-03T19:05:06.522Z,31.80
2018-01-03T19:07:35.450Z,37.10
2018-01-03T19:10:04.359Z,32.13
2018-01-03T19:12:33.273Z,30.70
2018-01-03T19:15:02.148Z,29.90
2018-01-03T19:17:32.193Z,29.10
2018-01-03T19:20:01.082Z,26.00
2018-01-03T19:22:29.941Z,25.27
2018-01-03T19:24:58.852Z,27.60
2018-01-03T19:27:27.805Z,28.80
2018-01-03T19:29:56.698Z,28.27
2018-01-03T19:32:25.658Z,29.20
2018-01-03T19:34:56.213Z,30.63
2018-01-03T19:37:25.055Z,30.03
2018-01-03T19:39:53.971Z,29.70
2018-01-03T19:42:23.814Z,29.70
2018-01-03T19:44:52.698Z,30.63
2018-01-03T19:47:21.600Z,31.60
2018-01-03T19:49:50.687Z,32.67
2018-01-03T19:52:19.889Z,34.40
2018-01-03T19:54:49.016Z,34.40
2018-01-03T19:57:18.890Z,35.13
2018-01-03T19:59:47.911Z,33.37
2018-01-03T20:02:16.928Z,31.13
2018-01-03T20:04:48.495Z,33.33
2018-01-03T20:07:17.603Z,32.30
2018-01-03T20:09:46.941Z,30.80
2018-01-03T20:12:16.965Z,31.53
2018-01-03T20:14:46.875Z,30.90
2018-01-03T20:17:16.131Z,31.47
2018-01-03T20:19:46.306Z,31.40
2018-01-03T20:22:15.192Z,32.20
2018-01-03T20:24:52.227Z,29.10
2018-01-03T20:27:21.321Z,33.03
2018-01-03T20:29:50.295Z,32.17
2018-01-03T20:32:20.188Z,32.60
2018-01-03T20:34:50.059Z,35.00
2018-01-03T20:37:19.752Z,35.10
2018-01-03T20:39:52.210Z,37.07
2018-01-03T20:42:22.093Z,34.97
2018-01-03T20:44:51.128Z,31.90
2018-01-03T20:47:20.530Z,35.80
2018-01-03T20:49:49.523Z,34.93
2018-01-03T20:52:18.526Z,33.50
2018-01-03T20:54:48.568Z,41.30
2018-01-03T20:57:17.595Z,51.80
2018-01-03T20:59:52.772Z,49.37
2018-01-03T21:02:22.548Z,43.97
2018-01-03T21:04:51.675Z,44.20
2018-01-03T21:07:22.680Z,48.60
2018-01-03T21:09:52.796Z,50.83
2018-01-03T21:12:22.132Z,48.73
2018-01-03T21:14:52.731Z,47.93
2018-01-03T21:17:22.641Z,49.10
2018-01-03T21:19:53.709Z,39.77
2018-01-03T21:22:22.561Z,29.40
2018-01-03T21:24:51.461Z,25.80
2018-01-03T21:27:22.493Z,24.83
2018-01-03T21:29:51.543Z,23.17
2018-01-03T21:32:20.392Z,22.13
2018-01-03T21:34:50.520Z,21.90
2018-01-03T21:37:20.517Z,19.80
2018-01-03T21:39:49.532Z,18.50
2018-01-03T21:42:18.522Z,18.07
2018-01-03T21:44:48.263Z,17.37
2018-01-03T21:47:18.246Z,17.73
2018-01-03T21:49:47.493Z,18.63
2018-01-03T21:52:16.641Z,20.23
2018-01-03T21:54:45.647Z,20.23
2018-01-03T21:57:16.714Z,18.40
2018-01-03T21:59:45.711Z,18.00
2018-01-03T22:02:14.730Z,18.53
2018-01-03T22:04:44.588Z,17.87
2018-01-03T22:07:13.916Z,17.73
2018-01-03T22:09:42.926Z,18.90
2018-01-03T22:12:11.907Z,19.47
2018-01-03T22:14:40.901Z,19.63
2018-01-03T22:17:09.749Z,19.77
2018-01-03T22:19:38.749Z,20.07
2018-01-03T22:22:08.491Z,19.53
2018-01-03T22:24:37.585Z,20.30
2018-01-03T22:27:06.531Z,19.67
2018-01-03T22:29:35.552Z,19.80
2018-01-03T22:32:04.739Z,17.27
2018-01-03T22:34:34.823Z,16.80
2018-01-03T22:37:04.029Z,18.17
2018-01-03T22:39:33.171Z,15.17
2018-01-03T22:42:02.149Z,14.53
2018-01-03T22:44:31.285Z,14.07
2018-01-03T22:47:00.216Z,12.33
2018-01-03T22:49:30.043Z,13.70
2018-01-03T22:51:59.965Z,11.40
2018-01-03T22:54:29.057Z,10.50
2018-01-03T22:56:58.149Z,9.03
2018-01-03T22:59:27.144Z,8.50
2018-01-03T23:01:56.141Z,7.47
2018-01-03T23:04:26.389Z,8.03
2018-01-03T23:06:55.805Z,7.93
2018-01-03T23:09:24.866Z,8.83
2018-01-03T23:11:54.671Z,9.30
2018-01-03T23:14:23.685Z,8.90
2018-01-03T23:16:52.871Z,8.70
2018-01-03T23:19:22.781Z,7.93
2018-01-03T23:21:53.116Z,8.80
2018-01-03T23:24:22.308Z,8.70
2018-01-03T23:26:51.329Z,8.30
2018-01-03T23:29:20.434Z,8.43
2018-01-03T23:31:49.329Z,7.80
2018-01-03T23:34:21.685Z,8.43
2018-01-03T23:36:50.902Z,8.90
2018-01-03T23:39:19.950Z,8.20
2018-01-03T23:41:49.870Z,8.70
2018-01-03T23:44:18.859Z,8.83
2018-01-03T23:46:48.653Z,9.50
2018-01-03T23:49:20.227Z,8.07
2018-01-03T23:51:50.343Z,10.00
2018-01-03T23:54:20.197Z,9.03
2018-01-03T23:56:49.978Z,9.33
2018-01-03T23:59:19.222Z,11.67
